C6518 KPBI-KNRB
Flight info
| Callsign | C6518 |
|---|---|
| Flight time | N/A |
| Altitude | 1500 |
| Route | SGJ |
| Aircraft | AS65/L-V/N |
Departure
| Time | N/A |
|---|---|
| Airport | Palm Beach International Airport (KPBI) |
Arrival
| Time | 2026-04-24 19:16 |
|---|---|
| Airport | Naval Station Mayport / Admiral David L McDonald Field (KNRB) |
| Time | Latitude | Longitude | Altitude | Speed | Heading |
|---|---|---|---|---|---|
| 2026-04-24 18:54 | 29.60307 | -81.16916 | 1083 ft | 141 kts | 19° |
| 2026-04-24 18:55 | 29.62187 | -81.16465 | 1090 ft | 139 kts | 17° |
| 2026-04-24 18:55 | 29.63126 | -81.16242 | 1095 ft | 140 kts | 16° |
| 2026-04-24 18:55 | 29.64061 | -81.16072 | 1097 ft | 139 kts | 12° |
| 2026-04-24 18:56 | 29.65045 | -81.16024 | 1095 ft | 143 kts | 4° |
| 2026-04-24 18:56 | 29.66031 | -81.16093 | 1101 ft | 143 kts | 359° |
| 2026-04-24 18:56 | 29.67024 | -81.16249 | 1107 ft | 145 kts | 357° |
| 2026-04-24 18:56 | 29.68014 | -81.16464 | 1104 ft | 145 kts | 352° |
| 2026-04-24 18:57 | 29.69001 | -81.16725 | 1105 ft | 145 kts | 351° |
| 2026-04-24 18:57 | 29.69990 | -81.17019 | 1107 ft | 145 kts | 350° |
| 2026-04-24 18:57 | 29.70960 | -81.17331 | 1106 ft | 146 kts | 351° |
| 2026-04-24 18:57 | 29.71916 | -81.17649 | 1102 ft | 145 kts | 348° |
| 2026-04-24 18:58 | 29.72885 | -81.17986 | 1094 ft | 146 kts | 348° |
| 2026-04-24 18:58 | 29.73855 | -81.18327 | 1107 ft | 147 kts | 347° |
| 2026-04-24 18:58 | 29.74836 | -81.18673 | 1111 ft | 145 kts | 348° |
| 2026-04-24 18:58 | 29.75802 | -81.19030 | 1103 ft | 148 kts | 347° |
| 2026-04-24 18:59 | 29.76766 | -81.19383 | 1103 ft | 143 kts | 346° |
| 2026-04-24 18:59 | 29.77726 | -81.19739 | 1104 ft | 146 kts | 347° |
| 2026-04-24 18:59 | 29.78692 | -81.20094 | 1107 ft | 146 kts | 345° |
| 2026-04-24 18:59 | 29.79651 | -81.20447 | 1108 ft | 145 kts | 346° |
| 2026-04-24 19:00 | 29.80616 | -81.20802 | 1111 ft | 145 kts | 347° |
| 2026-04-24 19:00 | 29.81560 | -81.21151 | 1108 ft | 145 kts | 346° |
| 2026-04-24 19:00 | 29.82525 | -81.21508 | 1105 ft | 148 kts | 347° |
| 2026-04-24 19:00 | 29.83494 | -81.21865 | 1107 ft | 147 kts | 347° |
| 2026-04-24 19:01 | 29.84472 | -81.22224 | 1107 ft | 147 kts | 345° |
| 2026-04-24 19:01 | 29.85437 | -81.22580 | 1111 ft | 146 kts | 347° |
| 2026-04-24 19:01 | 29.86393 | -81.22933 | 1110 ft | 144 kts | 347° |
| 2026-04-24 19:01 | 29.87345 | -81.23285 | 1105 ft | 145 kts | 345° |
| 2026-04-24 19:02 | 29.87977 | -81.23517 | 1102 ft | 145 kts | 346° |
| 2026-04-24 19:02 | 29.89258 | -81.23991 | 1088 ft | 147 kts | 347° |
| 2026-04-24 19:02 | 29.90223 | -81.24348 | 1087 ft | 146 kts | 346° |
| 2026-04-24 19:02 | 29.91193 | -81.24705 | 1096 ft | 146 kts | 347° |
| 2026-04-24 19:03 | 29.92166 | -81.25064 | 1101 ft | 146 kts | 347° |
| 2026-04-24 19:03 | 29.93126 | -81.25419 | 1093 ft | 144 kts | 345° |
| 2026-04-24 19:03 | 29.94086 | -81.25774 | 1095 ft | 144 kts | 347° |
| 2026-04-24 19:03 | 29.95051 | -81.26131 | 1095 ft | 146 kts | 347° |
| 2026-04-24 19:04 | 29.96015 | -81.26488 | 1090 ft | 145 kts | 345° |
| 2026-04-24 19:04 | 29.96967 | -81.26840 | 1089 ft | 146 kts | 346° |
| 2026-04-24 19:04 | 29.97932 | -81.27196 | 1088 ft | 146 kts | 346° |
| 2026-04-24 19:04 | 29.98906 | -81.27556 | 1094 ft | 146 kts | 346° |
| 2026-04-24 19:05 | 29.99879 | -81.27917 | 1100 ft | 146 kts | 346° |
| 2026-04-24 19:05 | 30.00846 | -81.28273 | 1097 ft | 144 kts | 346° |
| 2026-04-24 19:05 | 30.01801 | -81.28628 | 1092 ft | 145 kts | 345° |
| 2026-04-24 19:05 | 30.02761 | -81.28982 | 1096 ft | 144 kts | 347° |
| 2026-04-24 19:06 | 30.03714 | -81.29337 | 1094 ft | 143 kts | 346° |
| 2026-04-24 19:06 | 30.04666 | -81.29689 | 1085 ft | 146 kts | 347° |
| 2026-04-24 19:06 | 30.05640 | -81.30050 | 1086 ft | 147 kts | 345° |
| 2026-04-24 19:06 | 30.05969 | -81.30173 | 1095 ft | 147 kts | 346° |
| 2026-04-24 19:07 | 30.06797 | -81.30479 | 1090 ft | 147 kts | 346° |
| 2026-04-24 19:07 | 30.07771 | -81.30839 | 1103 ft | 145 kts | 346° |
| 2026-04-24 19:07 | 30.08411 | -81.31077 | 1091 ft | 146 kts | 345° |
| 2026-04-24 19:07 | 30.09695 | -81.31551 | 1091 ft | 143 kts | 345° |
| 2026-04-24 19:08 | 30.10652 | -81.31908 | 1087 ft | 145 kts | 346° |
| 2026-04-24 19:08 | 30.11598 | -81.32259 | 1093 ft | 145 kts | 346° |
| 2026-04-24 19:08 | 30.12561 | -81.32616 | 1094 ft | 145 kts | 345° |
| 2026-04-24 19:08 | 30.13531 | -81.32976 | 1092 ft | 146 kts | 346° |
| 2026-04-24 19:09 | 30.14497 | -81.33334 | 1096 ft | 145 kts | 347° |
| 2026-04-24 19:09 | 30.15458 | -81.33692 | 1092 ft | 145 kts | 345° |
| 2026-04-24 19:09 | 30.16414 | -81.34047 | 1095 ft | 144 kts | 344° |
| 2026-04-24 19:09 | 30.17370 | -81.34402 | 1087 ft | 145 kts | 345° |
| 2026-04-24 19:10 | 30.18316 | -81.34752 | 1080 ft | 145 kts | 346° |
| 2026-04-24 19:10 | 30.19286 | -81.35119 | 1054 ft | 147 kts | 344° |
| 2026-04-24 19:10 | 30.20204 | -81.35642 | 1007 ft | 148 kts | 332° |
| 2026-04-24 19:10 | 30.21064 | -81.36303 | 1002 ft | 148 kts | 327° |
| 2026-04-24 19:11 | 30.21913 | -81.36967 | 981 ft | 147 kts | 332° |
| 2026-04-24 19:11 | 30.22835 | -81.37459 | 1073 ft | 145 kts | 343° |
| 2026-04-24 19:11 | 30.23726 | -81.37869 | 1069 ft | 148 kts | 342° |
| 2026-04-24 19:11 | 30.24681 | -81.38336 | 1002 ft | 149 kts | 340° |
| 2026-04-24 19:12 | 30.25631 | -81.38818 | 967 ft | 150 kts | 340° |
| 2026-04-24 19:12 | 30.26569 | -81.39293 | 974 ft | 147 kts | 342° |
| 2026-04-24 19:12 | 30.27522 | -81.39667 | 928 ft | 144 kts | 348° |
| 2026-04-24 19:12 | 30.28457 | -81.39983 | 1024 ft | 136 kts | 347° |
| 2026-04-24 19:13 | 30.29056 | -81.40195 | 1041 ft | 131 kts | 347° |
| 2026-04-24 19:13 | 30.30184 | -81.40609 | 1129 ft | 126 kts | 346° |
| 2026-04-24 19:13 | 30.31005 | -81.40926 | 1182 ft | 123 kts | 347° |
| 2026-04-24 19:13 | 30.31801 | -81.41249 | 1259 ft | 121 kts | 345° |
| 2026-04-24 19:14 | 30.32580 | -81.41634 | 1266 ft | 124 kts | 341° |
| 2026-04-24 19:14 | 30.33378 | -81.41994 | 1217 ft | 123 kts | 347° |
| 2026-04-24 19:14 | 30.34184 | -81.42247 | 1055 ft | 118 kts | 348° |
| 2026-04-24 19:14 | 30.34955 | -81.42503 | 895 ft | 116 kts | 351° |
| 2026-04-24 19:15 | 30.35666 | -81.42782 | 867 ft | 100 kts | 345° |
| 2026-04-24 19:15 | 30.36269 | -81.43052 | 696 ft | 86 kts | 349° |
| 2026-04-24 19:15 | 30.36775 | -81.43241 | 613 ft | 67 kts | 352° |
| 2026-04-24 19:15 | 30.37162 | -81.43361 | 475 ft | 50 kts | 359° |
| 2026-04-24 19:16 | 30.37848 | -81.43424 | 309 ft | 50 kts | 21° |
| 2026-04-24 19:16 | 30.38184 | -81.43341 | 192 ft | 48 kts | 39° |
| 2026-04-24 19:16 | 30.38458 | -81.43157 | 130 ft | 46 kts | 56° |
| 2026-04-24 19:17 | 30.38695 | -81.42912 | 74 ft | 41 kts | 60° |
| 2026-04-24 19:17 | 30.38860 | -81.42748 | 32 ft | 21 kts | 52° |
| 2026-04-24 19:17 | 30.38913 | -81.42696 | 15 ft | 1 kts | 58° |
| 2026-04-24 19:17 | 30.38932 | -81.42672 | 23 ft | 12 kts | 48° |
| 2026-04-24 19:18 | 30.39073 | -81.42520 | 48 ft | 36 kts | 67° |
| 2026-04-24 19:18 | 30.39200 | -81.42339 | 94 ft | 21 kts | 97° |
| 2026-04-24 19:18 | 30.39201 | -81.42242 | 64 ft | 8 kts | 126° |
| 2026-04-24 19:18 | 30.39177 | -81.42198 | 53 ft | 7 kts | 126° |
| 2026-04-24 19:19 | 30.39167 | -81.42170 | 47 ft | 4 kts | 126° |
| 2026-04-24 19:19 | 30.39158 | -81.42134 | 52 ft | 4 kts | 134° |
| 2026-04-24 19:19 | 30.39146 | -81.42117 | 30 ft | 1 kts | 134° |
| 2026-04-24 19:19 | 30.39144 | -81.42114 | 25 ft | 1 kts | 134° |
| 2026-04-24 19:20 | 30.39143 | -81.42111 | 19 ft | 0 kts | 135° |
| 2026-04-24 19:20 | 30.39142 | -81.42110 | 19 ft | 0 kts | 137° |
| 2026-04-24 19:20 | 30.39141 | -81.42109 | 19 ft | 1 kts | 140° |
| 2026-04-24 19:20 | 30.39136 | -81.42104 | 18 ft | 0 kts | 149° |